Time;durP1;ratioP1;P1;durP2;ratioP2;P2;SDS_P1;SDS_P2;PMS_P1;PMS_P2;Temp;Humidity;BMP_temperature;BMP_pressure;BME280_temperature;BME280_humidity;BME280_pressure;Samples;Min_cycle;Max_cycle;Signal;HPM_P1;HPM_P2
2024/04/08 00:01:07;;;;;;;2.95;1.30;;;;;;;14.33;100.00;101169.69;5545334;25;20034;-41
2024/04/08 00:03:33;;;;;;;;;;;;;;;14.44;100.00;101173.41;5546160;25;20316;-41
2024/04/08 00:05:58;;;;;;;3.70;1.30;;;;;;;14.18;100.00;101169.47;5545307;25;20340;-41
2024/04/08 00:08:23;;;;;;;3.60;1.50;;;;;;;14.27;100.00;101159.00;5535905;25;20198;-41
2024/04/08 00:10:49;;;;;;;5.25;1.55;;;;;;;14.20;100.00;101155.59;5529493;26;20243;-41
2024/04/08 00:13:14;;;;;;;4.65;1.25;;;;;;;14.12;100.00;101159.56;5529164;26;19985;-40
2024/04/08 00:15:39;;;;;;;3.00;1.33;;;;;;;14.05;100.00;101157.00;5529653;26;20000;-40
2024/04/08 00:18:05;;;;;;;;;;;;;;;14.17;100.00;101155.03;5529683;26;20398;-40
2024/04/08 00:21:05;;;;;;;2.23;1.10;;;;;;;14.08;100.00;101140.19;5529908;26;20283;-40
2024/04/08 00:23:33;;;;;;;3.13;1.00;;;;;;;13.98;100.00;101153.63;5529184;26;20292;-40
2024/04/08 00:26:05;;;;;;;1.92;0.98;;;;;;;13.98;100.00;101155.53;5528786;26;19997;-40
2024/04/08 00:28:33;;;;;;;2.47;1.20;;;;;;;13.88;100.00;101145.28;5528597;26;20468;-40
2024/04/08 00:31:06;;;;;;;3.03;1.05;;;;;;;13.97;100.00;101137.56;5528782;26;19993;-41
2024/04/08 00:33:33;;;;;;;3.42;1.30;;;;;;;13.89;100.00;101145.03;5528818;26;20061;-41
2024/04/08 00:35:58;;;;;;;4.53;1.25;;;;;;;13.85;100.00;101145.78;5529038;26;20004;-40
2024/04/08 00:38:24;;;;;;;;;;;;;;;14.01;100.00;101133.28;5529620;26;19994;-41
2024/04/08 00:40:49;;;;;;;2.78;1.08;;;;;;;13.84;100.00;101120.50;5528903;26;20312;-41
2024/04/08 00:43:14;;;;;;;;;;;;;;;14.01;100.00;101114.25;5529482;26;20000;-40
2024/04/08 00:45:46;;;;;;;2.13;0.93;;;;;;;13.86;100.00;101131.16;5529017;26;19923;-40
2024/04/08 00:48:13;;;;;;;3.05;1.40;;;;;;;13.78;100.00;101124.19;5528814;26;20295;-40
2024/04/08 00:50:42;;;;;;;3.55;1.10;;;;;;;13.74;100.00;101112.16;5529019;26;20066;-40
2024/04/08 00:53:08;;;;;;;3.42;1.33;;;;;;;13.78;100.00;101117.94;5528123;26;19993;-40
2024/04/08 00:55:35;;;;;;;2.95;1.10;;;;;;;13.78;100.00;101112.50;5528309;26;19993;-40
2024/04/08 00:58:01;;;;;;;3.85;1.48;;;;;;;13.82;100.00;101114.50;5528702;26;20004;-40
2024/04/08 01:00:27;;;;;;;2.55;1.08;;;;;;;13.78;100.00;101102.47;5529102;26;20004;-40
2024/04/08 01:02:53;;;;;;;;;;;;;;;13.91;100.00;101107.59;5528879;26;20434;-40
2024/04/08 01:05:18;;;;;;;1.40;0.88;;;;;;;13.70;100.00;101108.28;5528845;26;19930;-40
2024/04/08 01:07:46;;;;;;;;;;;;;;;13.87;100.00;101097.44;5529487;26;19989;-40
2024/04/08 01:10:12;;;;;;;2.67;1.13;;;;;;;13.72;100.00;101102.63;5529062;26;19955;-40
2024/04/08 01:12:40;;;;;;;;;;;;;;;13.88;100.00;101108.06;5529239;26;20008;-40
2024/04/08 01:15:06;;;;;;;3.72;1.30;;;;;;;13.72;100.00;101098.00;5528485;26;19931;-40
2024/04/08 01:17:32;;;;;;;;;;;;;;;13.89;100.00;101103.44;5528836;26;20000;-40
2024/04/08 01:19:57;;;;;;;2.33;1.03;;;;;;;13.71;100.00;101087.38;5527257;26;19931;-40
2024/04/08 01:22:22;;;;;;;2.28;1.10;;;;;;;13.71;100.00;101096.34;5528474;26;20540;-40
2024/04/08 01:24:47;;;;;;;3.25;1.13;;;;;;;13.71;100.00;101100.97;5527961;26;19990;-40
2024/04/08 01:27:13;;;;;;;;;;;;;;;13.85;100.00;101105.81;5528614;26;19989;-41
2024/04/08 01:29:38;;;;;;;2.70;1.00;;;;;;;13.69;100.00;101089.53;5528292;26;19923;-40
2024/04/08 01:32:03;;;;;;;;;;;;;;;13.85;100.00;101092.22;5528209;26;19993;-40
2024/04/08 01:34:29;;;;;;;3.07;1.10;;;;;;;13.78;100.00;101091.59;5527981;26;19923;-40
2024/04/08 01:36:54;;;;;;;3.03;1.15;;;;;;;13.76;100.00;101093.75;5527807;26;20210;-40
2024/04/08 01:39:19;;;;;;;1.83;0.90;;;;;;;13.70;100.00;101093.88;5528192;26;19993;-40
2024/04/08 01:41:45;;;;;;;2.75;0.90;;;;;;;13.67;100.00;101083.53;5527733;26;19999;-40
2024/04/08 01:44:10;;;;;;;;;;;;;;;13.83;100.00;101094.38;5528460;26;20062;-40
2024/04/08 01:46:36;;;;;;;2.88;0.90;;;;;;;13.68;100.00;101090.59;5527674;26;19923;-40
2024/04/08 01:49:01;;;;;;;;;;;;;;;13.80;100.00;101092.16;5528818;26;19989;-39
2024/04/08 01:51:26;;;;;;;1.80;1.00;;;;;;;13.59;100.00;101096.41;5527592;26;19931;-40
2024/04/08 01:53:51;;;;;;;1.97;1.10;;;;;;;13.51;100.00;101069.63;5527925;26;20715;-40
2024/04/08 01:56:17;;;;;;;;;;;;;;;13.77;100.00;101086.41;5527969;26;19993;-40
2024/04/08 01:58:42;;;;;;;2.50;1.27;;;;;;;13.64;100.00;101074.78;5528346;26;19923;-40
2024/04/08 02:01:07;;;;;;;;;;;;;;;13.80;100.00;101077.75;5527991;26;20004;-40
2024/04/08 02:03:32;;;;;;;2.90;1.20;;;;;;;13.61;100.00;101069.00;5528103;26;19924;-41
2024/04/08 02:05:58;;;;;;;;;;;;;;;13.80;100.00;101078.56;5528066;26;20004;-41
2024/04/08 02:08:23;;;;;;;2.13;1.00;;;;;;;13.62;100.00;101074.19;5528052;26;19963;-39
2024/04/08 02:10:49;;;;;;;;;;;;;;;13.75;100.00;101072.22;5528853;26;20105;-40
2024/04/08 02:13:14;;;;;;;2.78;1.10;;;;;;;13.63;100.00;101064.16;5527410;26;19923;-41
2024/04/08 02:15:41;;;;;;;2.72;1.15;;;;;;;13.57;100.00;101057.81;5527847;26;20405;-41
2024/04/08 02:18:07;;;;;;;3.00;1.40;;;;;;;13.57;100.00;101036.06;5527840;26;20000;-41
2024/04/08 02:20:36;;;;;;;;;;;;;;;13.71;100.00;101039.28;5496186;26;20335;-41
2024/04/08 02:23:01;;;;;;;3.75;1.10;;;;;;;13.57;100.00;101049.66;5527270;26;19923;-39
2024/04/08 02:25:26;;;;;;;;;;;;;;;13.73;100.00;101052.63;5528330;26;20079;-39
2024/04/08 02:27:51;;;;;;;4.20;1.70;;;;;;;13.54;100.00;101047.44;5527167;26;19923;-40
2024/04/08 02:30:17;;;;;;;4.20;1.50;;;;;;;13.52;100.00;101065.06;5526887;26;20202;-39
2024/04/08 02:32:42;;;;;;;;;;;;;;;13.68;100.00;101057.97;5526941;26;20061;-39
2024/04/08 02:35:07;;;;;;;3.60;1.40;;;;;;;13.55;100.00;101054.50;5527114;26;19999;-39
2024/04/08 02:37:33;;;;;;;;;;;;;;;13.64;100.00;101047.59;5527088;26;20001;-40
2024/04/08 02:39:58;;;;;;;4.93;2.03;;;;;;;13.52;100.00;101044.16;5527133;26;19924;-40
2024/04/08 02:42:23;;;;;;;3.40;1.70;;;;;;;13.53;100.00;101039.53;5526921;26;20234;-40
2024/04/08 02:44:48;;;;;;;;;;;;;;;13.63;100.00;101017.97;5527401;26;19994;-40
2024/04/08 02:47:14;;;;;;;3.97;1.77;;;;;;;13.51;100.00;101018.03;5526483;26;19935;-40
2024/04/08 02:49:39;;;;;;;4.00;1.80;;;;;;;13.51;100.00;101011.75;5527308;26;20010;-39
2024/04/08 02:52:04;;;;;;;3.50;1.60;;;;;;;13.56;100.00;101017.28;5526668;26;20370;-41
2024/04/08 02:54:30;;;;;;;;;;;;;;;13.70;100.00;101017.78;5527513;26;20429;-41
2024/04/08 02:56:55;;;;;;;3.25;1.83;;;;;;;13.50;100.00;101019.09;5526639;26;19924;-40
2024/04/08 02:59:20;;;;;;;5.10;1.73;;;;;;;13.54;100.00;101020.25;5526981;26;20000;-40
2024/04/08 03:01:48;;;;;;;3.27;1.70;;;;;;;13.55;100.00;101027.34;5526828;26;20262;-41
2024/04/08 03:04:13;;;;;;;5.18;2.08;;;;;;;13.54;100.00;101042.00;5526778;26;20238;-41
2024/04/08 03:06:38;;;;;;;;;;;;;;;13.69;100.00;101044.13;5527273;26;19989;-40
2024/04/08 03:09:05;;;;;;;6.27;2.20;;;;;;;13.50;100.00;101054.41;5527344;26;19980;-41
2024/04/08 03:11:31;;;;;;;4.25;2.00;;;;;;;13.51;100.00;101047.09;5526261;26;19998;-40
2024/04/08 03:13:56;;;;;;;;;;;;;;;13.60;100.00;101059.19;5527180;26;20294;-40
2024/04/08 03:16:21;;;;;;;5.03;1.80;;;;;;;13.54;100.00;101063.72;5526758;26;19930;-40
2024/04/08 03:18:46;;;;;;;5.30;2.03;;;;;;;13.47;100.00;101051.34;5526857;26;20206;-41
2024/04/08 03:21:12;;;;;;;4.33;2.33;;;;;;;13.40;100.00;101056.97;5526129;26;20319;-40
2024/04/08 03:23:37;;;;;;;;;;;;;;;13.54;100.00;101065.63;5527339;26;19994;-40
2024/04/08 03:26:04;;;;;;;4.63;2.33;;;;;;;13.35;100.00;101054.97;5526705;26;19923;-40
2024/04/08 03:28:30;;;;;;;4.60;2.33;;;;;;;13.40;100.00;101063.22;5525949;26;20206;-40
2024/04/08 03:30:56;;;;;;;;;;;;;;;13.56;100.00;101056.13;5526644;26;20001;-40
2024/04/08 03:33:23;;;;;;;4.28;2.38;;;;;;;13.33;100.00;101026.41;5525588;26;19923;-40
2024/04/08 03:35:49;;;;;;;4.43;2.67;;;;;;;13.44;100.00;101030.94;5526382;26;19994;-40
2024/04/08 03:38:14;;;;;;;;;;;;;;;13.57;100.00;101025.22;5526358;26;20062;-40
2024/04/08 03:40:40;;;;;;;4.03;2.58;;;;;;;13.50;100.00;101018.28;5525823;26;19923;-41
2024/04/08 03:43:06;;;;;;;;;;;;;;;13.59;100.00;101019.53;5527589;26;20021;-40
2024/04/08 03:45:32;;;;;;;6.47;2.67;;;;;;;13.48;100.00;101018.53;5529802;26;19930;-40
2024/04/08 03:47:57;;;;;;;7.40;2.95;;;;;;;13.41;100.00;101009.69;5529197;26;19989;-39
2024/04/08 03:50:26;;;;;;;;;;;;;;;13.57;100.00;101013.53;5530326;26;20030;-40
2024/04/08 03:52:52;;;;;;;5.57;2.70;;;;;;;13.51;100.00;101009.88;5529353;26;19991;-40
2024/04/08 03:55:17;;;;;;;;;;;;;;;13.57;100.00;100998.03;5530207;26;19997;-39
2024/04/08 03:57:42;;;;;;;6.70;2.90;;;;;;;13.48;100.00;100991.38;5529397;26;19923;-39
2024/04/08 04:00:09;;;;;;;4.07;2.80;;;;;;;13.44;100.00;100990.22;5530215;26;20226;-40
2024/04/08 04:02:34;;;;;;;4.72;2.95;;;;;;;13.42;100.00;100989.63;5529260;26;20021;-40
2024/04/08 04:04:59;;;;;;;;;;;;;;;13.56;100.00;100982.78;5530148;26;20034;-40
2024/04/08 04:07:25;;;;;;;6.77;2.90;;;;;;;13.43;100.00;100964.13;5529258;26;19947;-40
2024/04/08 04:09:50;;;;;;;;;;;;;;;13.54;100.00;100955.06;5530101;26;19993;-40
2024/04/08 04:12:15;;;;;;;5.13;3.05;;;;;;;13.39;100.00;100955.63;5529108;26;19923;-40
2024/04/08 04:14:40;;;;;;;;;;;;;;;13.53;100.00;100955.31;5530892;26;20057;-40
2024/04/08 04:17:06;;;;;;;4.77;3.53;;;;;;;13.39;100.00;100946.66;5529018;26;19931;-40
2024/04/08 04:19:32;;;;;;;4.57;2.90;;;;;;;13.29;100.00;100939.19;5529670;26;20226;-40
2024/04/08 04:21:57;;;;;;;7.00;3.67;;;;;;;13.32;100.00;100956.84;5529250;26;19997;-40
2024/04/08 04:24:23;;;;;;;;;;;;;;;13.42;100.00;100962.47;5530387;26;20004;-40
2024/04/08 04:26:48;;;;;;;5.97;3.20;;;;;;;13.22;100.00;100954.78;5528724;26;19924;-40
2024/04/08 04:29:13;;;;;;;5.60;3.00;;;;;;;13.19;100.00;100957.16;5529115;26;20259;-40
2024/04/08 04:31:43;;;;;;;;;;;;;;;13.30;100.00;100961.72;5529152;26;20061;-42
2024/04/08 04:34:08;;;;;;;4.65;2.80;;;;;;;13.16;100.00;100947.59;5529384;26;19923;-40
2024/04/08 04:36:33;;;;;;;;;;;;;;;13.27;100.00;100962.19;5528699;26;20001;-40
2024/04/08 04:38:59;;;;;;;4.70;2.80;;;;;;;13.10;100.00;100954.84;5528851;26;19923;-40
2024/04/08 04:41:24;;;;;;;4.32;2.80;;;;;;;13.06;100.00;100944.72;5528497;26;20214;-40
2024/04/08 04:43:49;;;;;;;;;;;;;;;13.22;100.00;100962.13;5529649;26;19993;-40
2024/04/08 04:46:15;;;;;;;4.83;3.00;;;;;;;13.03;100.00;100964.19;5528447;26;19923;-40
2024/04/08 04:48:40;;;;;;;4.57;2.97;;;;;;;13.00;100.00;100962.81;5528318;26;20246;-40
2024/04/08 04:51:05;;;;;;;6.35;2.97;;;;;;;12.90;100.00;100949.06;5528577;26;20024;-40
2024/04/08 04:53:31;;;;;;;4.95;3.13;;;;;;;13.00;100.00;100976.38;5528285;26;20428;-40
2024/04/08 04:55:56;;;;;;;;;;;;;;;13.11;100.00;100972.78;5528507;26;20449;-40
2024/04/08 04:58:22;;;;;;;5.30;3.10;;;;;;;12.98;100.00;100989.38;5528969;26;19930;-39
2024/04/08 05:00:48;;;;;;;6.68;3.28;;;;;;;12.92;100.00;100990.34;5529010;26;20000;-40
2024/04/08 05:03:14;;;;;;;6.03;3.00;;;;;;;12.94;100.00;101000.97;5528387;26;20371;-39
2024/04/08 05:05:39;;;;;;;;;;;;;;;13.06;100.00;101007.97;5529262;26;19996;-40
2024/04/08 05:08:05;;;;;;;5.07;2.83;;;;;;;12.93;100.00;101008.25;5528842;26;19923;-40
2024/04/08 05:10:31;;;;;;;5.35;3.25;;;;;;;12.90;100.00;100987.06;5529230;26;19993;-40
2024/04/08 05:12:56;;;;;;;;;;;;;;;13.05;100.00;100995.47;5529838;26;19993;-40
2024/04/08 05:15:21;;;;;;;7.13;4.20;;;;;;;12.96;100.00;100996.09;5528508;26;19947;-40
2024/04/08 05:17:46;;;;;;;;;;;;;;;13.10;100.00;101013.75;5528767;26;19993;-40
2024/04/08 05:20:12;;;;;;;5.00;3.67;;;;;;;12.95;100.00;101014.28;5528511;26;19923;-39
2024/04/08 05:22:44;;;;;;;;;;;;;;;13.11;100.00;101035.22;5528664;26;20322;-39
2024/04/08 05:25:09;;;;;;;6.90;3.97;;;;;;;12.96;100.00;101034.94;5528366;26;20303;-39
2024/04/08 05:27:34;;;;;;;;;;;;;;;13.11;100.00;101046.06;5528707;26;20001;-40
2024/04/08 05:30:00;;;;;;;5.40;3.63;;;;;;;13.02;100.00;101052.97;5528100;26;19923;-39
2024/04/08 05:32:25;;;;;;;;;;;;;;;13.15;100.00;101047.25;5528476;26;20001;-40
2024/04/08 05:34:50;;;;;;;5.27;3.53;;;;;;;13.01;100.00;101054.03;5528374;26;19923;-40
2024/04/08 05:37:16;;;;;;;6.17;3.70;;;;;;;13.03;100.00;101053.78;5527700;26;20211;-40
2024/04/08 05:39:41;;;;;;;;;;;;;;;13.16;100.00;101056.22;5528463;26;19989;-40
2024/04/08 05:42:06;;;;;;;5.25;3.10;;;;;;;13.06;100.00;101029.69;5527836;26;20336;-40
2024/04/08 05:44:32;;;;;;;4.07;3.55;;;;;;;13.12;100.00;101004.28;5528095;26;20001;-40
2024/04/08 05:46:58;;;;;;;;;;;;;;;13.22;100.00;100975.69;5528346;26;20089;-40
2024/04/08 05:49:23;;;;;;;4.75;3.70;;;;;;;13.07;100.00;100959.94;5528438;26;20303;-40
2024/04/08 05:51:48;;;;;;;6.43;4.03;;;;;;;13.07;100.00;100962.63;5527819;26;19994;-40
2024/04/08 05:54:13;;;;;;;;;;;;;;;13.18;100.00;100950.09;5528573;26;19993;-40
2024/04/08 05:56:39;;;;;;;8.03;4.53;;;;;;;13.05;100.00;100953.94;5527611;26;19959;-40
2024/04/08 05:59:04;;;;;;;;;;;;;;;13.31;100.00;100980.47;5528793;26;19989;-40
2024/04/08 06:01:29;;;;;;;6.00;3.72;;;;;;;13.30;100.00;100980.72;5527930;26;19939;-40
2024/04/08 06:03:55;;;;;;;5.75;3.60;;;;;;;13.37;100.00;100976.78;5528507;26;20305;-40
2024/04/08 06:06:20;;;;;;;6.70;3.85;;;;;;;13.43;100.00;100979.59;5526968;26;20481;-40
2024/04/08 06:08:54;;;;;;;5.27;3.90;;;;;;;13.48;100.00;100993.25;5528091;26;20451;-39
2024/04/08 06:11:19;;;;;;;6.25;3.92;;;;;;;13.48;100.00;100995.97;5527723;26;20222;-40
2024/04/08 06:13:44;;;;;;;;;;;;;;;13.65;100.00;101000.31;5528580;26;19993;-40
2024/04/08 06:16:10;;;;;;;5.13;3.80;;;;;;;13.57;100.00;101000.75;5527963;26;19930;-39
2024/04/08 06:18:35;;;;;;;;;;;;;;;13.72;100.00;100996.63;5528238;26;19997;-40
2024/04/08 06:21:00;;;;;;;5.77;3.50;;;;;;;13.62;100.00;100998.13;5527786;26;19923;-39
2024/04/08 06:23:25;;;;;;;;;;;;;;;13.78;100.00;101003.78;5528051;26;20414;-39
2024/04/08 06:26:00;;;;;;;5.03;3.42;;;;;;;13.64;100.00;100998.69;5528032;26;20339;-40
2024/04/08 06:28:26;;;;;;;4.85;3.35;;;;;;;13.68;100.00;101009.06;5495196;26;20422;-40
2024/04/08 06:30:51;;;;;;;;;;;;;;;13.84;100.00;101017.19;5528483;26;20061;-40
2024/04/08 06:33:17;;;;;;;5.70;3.60;;;;;;;13.72;100.00;101021.91;5527516;26;20306;-40
2024/04/08 06:35:45;;;;;;;;;;;;;;;13.85;100.00;101035.16;5528195;26;20406;-39
2024/04/08 06:38:12;;;;;;;6.22;3.58;;;;;;;13.68;100.00;101020.75;5527356;26;19924;-40
2024/04/08 06:40:37;;;;;;;6.05;3.13;;;;;;;13.71;100.00;101035.72;5527225;26;19997;-40
2024/04/08 06:43:03;;;;;;;;;;;;;;;13.84;100.00;101029.97;5527976;26;20008;-40
2024/04/08 06:45:28;;;;;;;5.43;3.47;;;;;;;13.71;100.00;101020.25;5527148;26;19923;-40
2024/04/08 06:47:53;;;;;;;;;;;;;;;13.84;100.00;101017.19;5527659;26;19990;-40
2024/04/08 06:50:19;;;;;;;5.40;3.30;;;;;;;13.75;100.00;101015.16;5527191;26;19930;-40
2024/04/08 06:52:44;;;;;;;;;;;;;;;13.90;100.00;101010.75;5527328;26;19994;-40
2024/04/08 06:55:09;;;;;;;4.60;3.25;;;;;;;13.83;100.00;101012.03;5527044;26;19923;-40
2024/04/08 06:57:34;;;;;;;;;;;;;;;13.98;100.00;101017.69;5526990;26;20438;-40
2024/04/08 07:00:00;;;;;;;4.03;2.85;;;;;;;13.91;100.00;101000.75;5527610;26;19984;-40
2024/04/08 07:02:25;;;;;;;;;;;;;;;14.13;100.00;101014.38;5527478;26;20016;-40
2024/04/08 07:04:50;;;;;;;5.50;3.27;;;;;;;14.03;100.00;101006.88;5527235;26;19930;-41
2024/04/08 07:07:16;;;;;;;;;;;;;;;14.21;100.00;101005.78;5527414;26;20016;-41
2024/04/08 07:09:41;;;;;;;5.05;3.30;;;;;;;14.09;100.00;101011.31;5526743;26;19927;-40
2024/04/08 07:12:06;;;;;;;;;;;;;;;14.28;100.00;101005.59;5526904;26;19989;-40
2024/04/08 07:14:32;;;;;;;4.28;2.78;;;;;;;14.20;100.00;101000.56;5527208;26;19924;-40
2024/04/08 07:16:57;;;;;;;;;;;;;;;14.38;100.00;101008.44;5527414;26;20030;-40
2024/04/08 07:19:22;;;;;;;5.60;3.03;;;;;;;14.29;100.00;101001.78;5529588;26;19935;-41
2024/04/08 07:21:48;;;;;;;3.45;2.67;;;;;;;14.27;100.00;100995.78;5529957;26;20210;-40
2024/04/08 07:24:13;;;;;;;;;;;;;;;14.54;100.00;101006.75;5530940;26;20061;-40
2024/04/08 07:26:38;;;;;;;7.43;3.10;;;;;;;14.48;100.00;101007.78;5530227;26;19930;-40
2024/04/08 07:29:04;;;;;;;4.00;2.85;;;;;;;14.51;100.00;100999.13;5497871;26;20231;-40
2024/04/08 07:31:29;;;;;;;;;;;;;;;14.73;100.00;101004.53;5530614;26;20315;-39
2024/04/08 07:33:54;;;;;;;3.70;2.53;;;;;;;14.63;100.00;101006.06;5530040;26;19933;-39
2024/04/08 07:36:19;;;;;;;4.30;2.58;;;;;;;14.65;100.00;101003.94;5529608;26;20214;-39
2024/04/08 07:38:46;;;;;;;;;;;;;;;14.84;100.00;101007.16;5531145;26;19993;-40
2024/04/08 07:41:11;;;;;;;3.33;2.80;;;;;;;14.70;100.00;100989.56;5530211;26;19930;-39
2024/04/08 07:43:37;;;;;;;;;;;;;;;14.89;100.00;100990.03;5530868;26;19986;-40
2024/04/08 07:46:03;;;;;;;4.38;2.47;;;;;;;14.82;100.00;100979.34;5529627;26;19931;-40
2024/04/08 07:48:29;;;;;;;4.07;2.70;;;;;;;14.79;100.00;100965.44;5530668;26;20038;-41
2024/04/08 07:50:56;;;;;;;;;;;;;;;14.96;100.00;100966.16;5530204;26;20334;-40
2024/04/08 07:53:21;;;;;;;4.32;2.50;;;;;;;14.82;100.00;100960.28;5529761;26;19923;-40
2024/04/08 07:55:47;;;;;;;;;;;;;;;15.03;100.00;100972.22;5530248;26;19999;-40
2024/04/08 07:58:12;;;;;;;5.93;2.90;;;;;;;15.03;100.00;100977.66;5529595;26;19931;-41
2024/04/08 08:00:37;;;;;;;;;;;;;;;15.25;100.00;100969.41;5530795;26;20065;-41
2024/04/08 08:03:03;;;;;;;5.17;3.27;;;;;;;15.23;100.00;100968.03;5529736;26;19947;-40
2024/04/08 08:05:28;;;;;;;;;;;;;;;15.45;100.00;100969.59;5530227;26;20202;-40
2024/04/08 08:07:53;;;;;;;8.27;3.67;;;;;;;15.32;100.00;100975.47;5529279;26;19992;-40
2024/04/08 08:10:19;;;;;;;;;;;;;;;15.58;100.00;100973.78;5530794;26;19993;-40
2024/04/08 08:12:44;;;;;;;4.60;3.40;;;;;;;15.65;100.00;100965.41;5529170;26;19930;-41
2024/04/08 08:15:10;;;;;;;;;;;;;;;15.89;100.00;100957.66;5530663;26;20005;-41
2024/04/08 08:17:36;;;;;;;5.20;2.42;;;;;;;15.91;100.00;100950.88;5529000;26;20349;-41
2024/04/08 08:20:04;;;;;;;3.63;2.75;;;;;;;15.91;100.00;100947.31;5529447;26;20008;-40
2024/04/08 08:22:30;;;;;;;4.60;2.60;;;;;;;15.96;100.00;100941.91;5529138;26;20324;-41
2024/04/08 08:24:55;;;;;;;;;;;;;;;16.29;100.00;100945.31;5529937;26;20028;-41
2024/04/08 08:27:21;;;;;;;3.30;2.30;;;;;;;16.15;100.00;100929.44;5528783;26;19923;-41
2024/04/08 08:29:50;;;;;;;;;;;;;;;16.47;100.00;100953.84;5529037;26;19993;-41
2024/04/08 08:32:15;;;;;;;3.97;2.25;;;;;;;16.36;100.00;100940.44;5528621;26;19923;-40
2024/04/08 08:34:40;;;;;;;;;;;;;;;16.63;100.00;100937.50;5529820;26;20004;-40
2024/04/08 08:37:06;;;;;;;4.57;2.57;;;;;;;16.37;100.00;100937.44;5529651;26;19924;-40
2024/04/08 08:39:37;;;;;;;;;;;;;;;16.61;100.00;100942.44;5529733;26;20008;-40
2024/04/08 08:42:06;;;;;;;4.80;2.58;;;;;;;16.44;100.00;100954.38;5528834;26;19935;-41
2024/04/08 08:44:33;;;;;;;4.45;2.70;;;;;;;16.45;100.00;100952.50;5529474;26;20020;-40
2024/04/08 08:46:59;;;;;;;3.25;2.40;;;;;;;16.47;100.00;100953.03;5528999;26;20056;-40
2024/04/08 08:49:29;;;;;;;4.47;1.92;;;;;;;16.60;100.00;100947.09;5529792;26;20018;-40
2024/04/08 08:51:55;;;;;;;3.13;2.20;;;;;;;16.70;100.00;100951.75;5528251;26;20000;-40
2024/04/08 08:54:21;;;;;;;4.95;2.25;;;;;;;16.73;100.00;100943.84;5528836;26;19997;-40
2024/04/08 08:56:46;;;;;;;2.40;1.70;;;;;;;16.83;100.00;100947.69;5528218;26;19990;-40
2024/04/08 08:59:13;;;;;;;;;;;;;;;17.06;100.00;100938.19;5530007;26;19997;-40
2024/04/08 09:01:38;;;;;;;2.83;1.92;;;;;;;16.97;100.00;100940.63;5528514;26;19930;-40
2024/04/08 09:04:04;;;;;;;;;;;;;;;17.10;100.00;100951.03;5529971;26;20017;-40
2024/04/08 09:06:30;;;;;;;4.32;1.70;;;;;;;16.83;100.00;100951.25;5528712;26;19957;-40
2024/04/08 09:08:55;;;;;;;;;;;;;;;17.07;100.00;100950.75;5528132;26;20470;-40
2024/04/08 09:11:21;;;;;;;2.97;1.58;;;;;;;16.90;100.00;100956.47;5527992;26;19956;-40
2024/04/08 09:13:47;;;;;;;;;;;;;;;16.96;100.00;100955.38;5529570;26;19997;-40
2024/04/08 09:16:20;;;;;;;3.38;1.90;;;;;;;16.67;100.00;100933.97;5495860;26;20348;-40
2024/04/08 09:18:46;;;;;;;3.00;1.58;;;;;;;16.83;100.00;100940.31;5528341;26;20143;-41
2024/04/08 09:21:11;;;;;;;4.03;2.05;;;;;;;16.94;100.00;100932.97;5528409;26;20017;-41
2024/04/08 09:23:42;;;;;;;;;;;;;;;17.18;100.00;100936.84;5528763;26;20001;-40
2024/04/08 09:26:08;;;;;;;4.40;1.70;;;;;;;17.30;100.00;100941.19;5528835;26;20408;-41
2024/04/08 09:28:33;;;;;;;3.70;1.80;;;;;;;17.30;100.00;100933.81;5527910;26;20444;-40
2024/04/08 09:30:59;;;;;;;3.08;1.65;;;;;;;17.44;100.00;100923.16;5528422;26;19998;-40
2024/04/08 09:33:25;;;;;;;2.80;1.67;;;;;;;17.46;100.00;100912.75;5527988;26;19989;-40
2024/04/08 09:35:50;;;;;;;;;;;;;;;17.70;100.00;100908.34;5528508;26;20001;-40
2024/04/08 09:38:19;;;;;;;2.60;1.33;;;;;;;17.51;100.00;100901.81;5527747;26;19931;-40
2024/04/08 09:40:46;;;;;;;2.08;1.30;;;;;;;17.53;100.00;100905.09;5526913;26;19997;-40
2024/04/08 09:43:13;;;;;;;3.50;1.60;;;;;;;17.52;100.00;100914.41;5528447;26;20001;-40
2024/04/08 09:45:39;;;;;;;2.05;1.52;;;;;;;17.53;100.00;100905.09;5528188;26;20004;-40
2024/04/08 09:48:09;;;;;;;2.47;1.52;;;;;;;17.64;100.00;100906.72;5527418;26;20004;-40
2024/04/08 09:50:37;;;;;;;2.47;1.63;;;;;;;17.78;100.00;100896.06;5527837;26;20308;-40
2024/04/08 09:53:03;;;;;;;4.00;1.42;;;;;;;17.89;100.00;100899.56;5527762;26;20321;-40
2024/04/08 09:55:29;;;;;;;2.97;1.88;;;;;;;18.05;100.00;100908.53;5528061;26;19993;-40
2024/04/08 09:57:57;;;;;;;;;;;;;;;18.36;100.00;100892.81;5528554;26;20311;-40
2024/04/08 10:00:22;;;;;;;3.20;1.50;;;;;;;18.26;100.00;100907.38;5528161;26;19923;-39
2024/04/08 10:02:49;;;;;;;;;;;;;;;18.41;100.00;100890.06;5528270;26;20004;-39
2024/04/08 10:05:15;;;;;;;2.90;1.40;;;;;;;18.27;100.00;100893.41;5528297;26;19923;-40
2024/04/08 10:07:41;;;;;;;3.30;1.50;;;;;;;18.18;100.00;100886.06;5528012;26;19993;-40
2024/04/08 10:10:07;;;;;;;2.40;1.50;;;;;;;18.31;100.00;100892.84;5527883;26;19989;-41
2024/04/08 10:12:34;;;;;;;2.20;1.15;;;;;;;18.30;100.00;100892.03;5527291;26;19990;-41
2024/04/08 10:15:10;;;;;;;2.72;1.10;;;;;;;18.38;100.00;100893.34;5527855;26;19997;-41
2024/04/08 10:17:36;;;;;;;4.45;1.30;;;;;;;18.51;100.00;100884.53;5527704;26;20322;-40
2024/04/08 10:20:05;;;;;;;2.83;1.42;;;;;;;18.59;100.00;100888.56;5527945;26;20075;-41
2024/04/08 10:22:33;;;;;;;2.55;1.33;;;;;;;18.78;100.00;100897.78;5527378;26;20007;-40
2024/04/08 10:24:58;;;;;;;2.97;1.27;;;;;;;18.65;100.00;100899.22;5527289;26;19993;-40
2024/04/08 10:27:26;;;;;;;3.42;1.35;;;;;;;18.68;100.00;100897.81;5527179;26;19993;-40
2024/04/08 10:29:58;;;;;;;2.95;1.30;;;;;;;18.86;100.00;100894.44;5527116;26;19997;-39
2024/04/08 10:32:24;;;;;;;4.65;1.33;;;;;;;18.93;100.00;100894.94;5527161;26;20329;-41
2024/04/08 10:34:53;;;;;;;2.45;1.50;;;;;;;19.02;100.00;100906.09;5527118;26;20073;-40
2024/04/08 10:37:19;;;;;;;2.95;1.40;;;;;;;19.03;100.00;100897.63;5526630;26;19997;-40
2024/04/08 10:39:44;;;;;;;;;;;;;;;19.35;100.00;100893.50;5557152;25;19997;-40
2024/04/08 10:42:14;;;;;;;2.33;1.23;;;;;;;19.12;100.00;100892.31;5526967;26;19924;-40
2024/04/08 10:44:40;;;;;;;2.95;1.10;;;;;;;19.13;100.00;100879.44;5527231;26;20000;-40
2024/04/08 10:47:06;;;;;;;;;;;;;;;19.34;100.00;100878.16;5527739;26;20018;-40
2024/04/08 10:49:31;;;;;;;3.38;1.23;;;;;;;18.99;100.00;100854.63;5526883;26;19923;-40
2024/04/08 10:51:57;;;;;;;3.05;1.20;;;;;;;18.95;100.00;100870.00;5494258;26;19990;-40
2024/04/08 10:54:22;;;;;;;4.05;1.30;;;;;;;18.93;100.00;100861.25;5527299;26;19993;-40
2024/04/08 10:56:48;;;;;;;1.80;1.30;;;;;;;18.85;100.00;100848.97;5526659;26;20017;-40
2024/04/08 10:59:14;;;;;;;2.58;1.45;;;;;;;18.76;100.00;100848.78;5527644;26;20005;-40
2024/04/08 11:01:39;;;;;;;2.35;1.40;;;;;;;18.69;100.00;100826.38;5526994;26;19993;-40
2024/04/08 11:04:05;;;;;;;4.68;1.30;;;;;;;18.76;100.00;100837.81;5527138;26;19993;-40
2024/04/08 11:06:31;;;;;;;3.10;1.45;;;;;;;18.80;100.00;100840.00;5526985;26;20035;-40
2024/04/08 11:08:56;;;;;;;4.05;1.48;;;;;;;18.73;100.00;100852.06;5527048;26;20058;-40
2024/04/08 11:11:28;;;;;;;;;;;;;;;18.91;100.00;100842.34;5527142;26;20433;-41
2024/04/08 11:13:53;;;;;;;2.05;1.40;;;;;;;18.74;100.00;100837.28;5526792;26;19923;-40
2024/04/08 11:16:18;;;;;;;;;;;;;;;18.87;100.00;100835.00;5526619;26;20516;-40
2024/04/08 11:18:46;;;;;;;4.10;2.15;;;;;;;18.63;100.00;100829.38;5526918;26;19931;-40
2024/04/08 11:21:13;;;;;;;3.00;1.58;;;;;;;18.60;100.00;100835.47;5526345;26;20022;-40
2024/04/08 11:23:41;;;;;;;2.80;1.58;;;;;;;18.64;100.00;100837.34;5526337;26;20432;-40
2024/04/08 11:26:07;;;;;;;2.53;1.25;;;;;;;18.73;100.00;100832.91;5526561;26;20020;-40
2024/04/08 11:28:33;;;;;;;3.45;1.50;;;;;;;18.75;100.00;100838.13;5526830;26;19985;-40
2024/04/08 11:30:58;;;;;;;;;;;;;;;18.87;100.00;100840.47;5528089;26;20000;-40